Time;durP1;ratioP1;P1;durP2;ratioP2;P2;SDS_P1;SDS_P2;PMS_P1;PMS_P2;Temp;Humidity;BMP_temperature;BMP_pressure;BME280_temperature;BME280_humidity;BME280_pressure;Samples;Min_cycle;Max_cycle;Signal;HPM_P1;HPM_P2
2021/10/08 00:00:34;;;;;;;27.25;17.35;;;8.00;99.90;;;;;;5108416;27;20476;-74
2021/10/08 00:03:00;;;;;;;26.13;17.45;;;8.00;99.90;;;;;;5083887;28;20107;-74
2021/10/08 00:05:27;;;;;;;26.23;16.45;;;8.00;99.90;;;;;;5103726;28;20032;-74
2021/10/08 00:07:54;;;;;;;24.42;15.98;;;8.00;99.90;;;;;;5083788;28;20050;-74
2021/10/08 00:10:21;;;;;;;26.90;17.55;;;7.90;99.90;;;;;;5084364;28;20038;-74
2021/10/08 00:12:47;;;;;;;26.55;16.75;;;7.90;99.90;;;;;;5085803;28;20043;-74
2021/10/08 00:15:14;;;;;;;27.08;16.98;;;7.90;99.90;;;;;;5105454;28;20047;-74
2021/10/08 00:17:40;;;;;;;25.88;17.15;;;7.90;99.90;;;;;;5064312;28;20048;-74
2021/10/08 00:20:08;;;;;;;25.35;16.30;;;7.80;99.90;;;;;;5103933;28;20387;-74
2021/10/08 00:22:35;;;;;;;24.45;14.93;;;7.80;99.90;;;;;;5083838;27;20040;-74
2021/10/08 00:25:02;;;;;;;23.45;15.23;;;7.80;99.90;;;;;;5084673;28;20059;-74
2021/10/08 00:27:28;;;;;;;26.85;17.38;;;7.80;99.90;;;;;;5104966;28;20039;-74
2021/10/08 00:29:55;;;;;;;23.77;14.82;;;7.80;99.90;;;;;;5066884;28;20042;-74
2021/10/08 00:32:21;;;;;;;27.08;16.95;;;7.80;99.90;;;;;;5064377;28;20396;-74
2021/10/08 00:34:48;;;;;;;21.52;15.18;;;7.80;99.90;;;;;;5066764;28;20067;-74
2021/10/08 00:37:15;;;;;;;28.05;15.98;;;7.70;99.90;;;;;;5068466;27;20036;-74
2021/10/08 00:39:43;;;;;;;23.63;15.75;;;7.70;99.90;;;;;;5059779;28;20040;-74
2021/10/08 00:42:09;;;;;;;22.80;15.57;;;7.70;99.90;;;;;;5103452;28;20081;-74
2021/10/08 00:44:36;;;;;;;22.25;14.48;;;7.70;99.90;;;;;;5083127;28;20500;-74
2021/10/08 00:47:12;;;;;;;22.35;13.77;;;7.70;99.90;;;;;;5068867;28;20036;-74
2021/10/08 00:49:38;;;;;;;21.58;15.27;;;7.60;99.90;;;;;;5101124;28;20024;-74
2021/10/08 00:52:05;;;;;;;22.60;14.95;;;7.60;99.90;;;;;;5084902;28;20043;-74
2021/10/08 00:54:31;;;;;;;22.95;15.73;;;7.60;99.90;;;;;;5033157;28;20408;-73
2021/10/08 00:56:58;;;;;;;21.40;14.18;;;7.60;99.90;;;;;;5064521;28;20040;-73
2021/10/08 00:59:27;;;;;;;24.63;15.60;;;7.60;99.90;;;;;;5085444;28;20043;-74
2021/10/08 01:01:53;;;;;;;20.88;14.95;;;7.50;99.90;;;;;;5072728;28;20044;-74
2021/10/08 01:04:22;;;;;;;23.65;15.00;;;7.50;99.90;;;;;;5067817;28;20047;-74
2021/10/08 01:06:49;;;;;;;24.17;15.25;;;7.50;99.90;;;;;;5073396;28;20044;-74
2021/10/08 01:09:16;;;;;;;26.80;15.68;;;7.50;99.90;;;;;;5068496;28;20039;-74
2021/10/08 01:11:44;;;;;;;23.45;15.50;;;7.50;99.90;;;;;;5069169;28;20381;-75
2021/10/08 01:14:11;;;;;;;26.63;15.40;;;7.50;99.90;;;;;;5074561;28;20038;-75
2021/10/08 01:16:47;;;;;;;27.67;16.80;;;7.50;99.90;;;;;;5077509;28;20399;-75
2021/10/08 01:19:14;;;;;;;29.75;16.70;;;7.50;99.90;;;;;;5045518;28;20040;-75
2021/10/08 01:21:45;;;;;;;28.55;16.80;;;7.50;99.90;;;;;;5065894;28;20048;-74
2021/10/08 01:24:12;;;;;;;28.75;17.45;;;7.40;99.90;;;;;;5048387;28;20047;-75
2021/10/08 01:26:39;;;;;;;29.98;17.40;;;7.40;99.90;;;;;;5083561;28;20051;-75
2021/10/08 01:29:10;;;;;;;26.25;15.82;;;7.40;99.90;;;;;;5056173;28;20520;-75
2021/10/08 01:31:38;;;;;;;24.70;16.77;;;7.40;99.90;;;;;;5070560;28;20032;-75
2021/10/08 01:34:05;;;;;;;27.10;17.48;;;7.40;99.90;;;;;;5089142;28;20047;-75
2021/10/08 01:36:41;;;;;;;27.75;16.63;;;7.40;99.90;;;;;;5071725;28;20047;-74
2021/10/08 01:39:08;;;;;;;28.35;17.40;;;7.50;99.90;;;;;;5067719;28;20050;-74
2021/10/08 01:41:37;;;;;;;29.67;17.52;;;7.40;99.90;;;;;;5054463;28;20043;-75
2021/10/08 01:44:04;;;;;;;30.30;18.08;;;7.40;99.90;;;;;;5070478;28;20036;-75
2021/10/08 01:46:31;;;;;;;31.98;18.02;;;7.40;99.90;;;;;;5086782;28;20044;-74
2021/10/08 01:48:59;;;;;;;29.63;18.08;;;7.40;99.90;;;;;;5074661;28;20032;-75
2021/10/08 01:51:30;;;;;;;28.58;17.65;;;7.40;99.90;;;;;;5073205;28;20480;-74
2021/10/08 01:53:56;;;;;;;26.02;15.77;;;7.40;99.90;;;;;;5065487;27;20629;-74
2021/10/08 01:56:25;;;;;;;28.17;17.45;;;7.40;99.90;;;;;;5090204;27;20047;-75
2021/10/08 01:58:58;;;;;;;27.13;17.45;;;7.40;99.90;;;;;;5114361;27;20487;-75
2021/10/08 02:01:26;;;;;;;30.95;18.95;;;7.40;99.90;;;;;;5078525;28;20028;-75
2021/10/08 02:03:57;;;;;;;29.17;19.00;;;7.40;99.90;;;;;;5088344;28;20130;-74
2021/10/08 02:06:26;;;;;;;30.58;18.92;;;7.40;99.90;;;;;;5082932;28;20036;-75
2021/10/08 02:08:53;;;;;;;27.98;17.98;;;7.40;99.90;;;;;;5086568;28;20047;-74
2021/10/08 02:11:20;;;;;;;30.08;18.80;;;7.40;99.90;;;;;;5091341;28;20054;-74
2021/10/08 02:13:46;;;;;;;28.70;17.98;;;7.30;99.90;;;;;;5095637;28;20040;-76
2021/10/08 02:16:14;;;;;;;30.00;17.20;;;7.40;99.90;;;;;;5092462;28;20043;-75
2021/10/08 02:18:54;;;;;;;29.08;18.23;;;7.40;99.90;;;;;;5082589;28;20028;-74
2021/10/08 02:21:22;;;;;;;27.10;17.15;;;7.40;99.90;;;;;;5059982;28;20040;-74
2021/10/08 02:23:50;;;;;;;34.17;21.27;;;7.40;99.90;;;;;;5070265;28;20039;-74
2021/10/08 02:26:17;;;;;;;33.78;20.55;;;7.40;99.90;;;;;;5071868;28;20043;-75
2021/10/08 02:28:44;;;;;;;33.13;18.83;;;7.40;99.90;;;;;;5073673;28;20035;-74
2021/10/08 02:31:11;;;;;;;32.03;19.67;;;7.40;99.90;;;;;;5100413;27;20038;-74
2021/10/08 02:33:38;;;;;;;33.40;19.73;;;7.40;99.90;;;;;;5086116;28;20028;-74
2021/10/08 02:36:06;;;;;;;31.77;18.88;;;7.40;99.90;;;;;;5106565;27;20484;-74
2021/10/08 02:38:35;;;;;;;31.80;19.63;;;7.40;99.90;;;;;;5074025;28;20039;-74
2021/10/08 02:41:02;;;;;;;31.08;18.98;;;7.40;99.90;;;;;;5088126;28;20036;-74
2021/10/08 02:43:29;;;;;;;32.75;19.42;;;7.40;99.90;;;;;;5037834;27;20050;-74
2021/10/08 02:45:56;;;;;;;32.67;19.40;;;7.50;99.90;;;;;;5116629;27;20050;-74
2021/10/08 02:48:23;;;;;;;33.70;19.50;;;7.50;99.90;;;;;;5107703;27;20849;-74
2021/10/08 02:50:50;;;;;;;37.38;20.88;;;7.60;99.90;;;;;;5095273;27;20043;-74
2021/10/08 02:53:17;;;;;;;31.40;19.48;;;7.60;99.90;;;;;;5109399;27;20035;-74
2021/10/08 02:55:44;;;;;;;33.45;19.08;;;7.60;99.90;;;;;;5103958;27;20047;-74
2021/10/08 02:58:10;;;;;;;29.80;17.75;;;7.60;99.90;;;;;;5082413;28;20044;-74
2021/10/08 03:00:38;;;;;;;30.02;18.70;;;7.60;99.90;;;;;;5069841;27;20047;-74
2021/10/08 03:03:04;;;;;;;33.15;19.70;;;7.60;99.90;;;;;;5088434;27;20039;-74
2021/10/08 03:05:31;;;;;;;30.50;18.73;;;7.60;99.90;;;;;;5067404;27;20429;-74
2021/10/08 03:07:58;;;;;;;32.63;19.25;;;7.60;99.90;;;;;;5085173;27;20040;-74
2021/10/08 03:10:27;;;;;;;32.85;18.80;;;7.60;99.90;;;;;;5052069;27;20055;-74
2021/10/08 03:12:54;;;;;;;32.00;18.55;;;7.60;99.90;;;;;;5068122;28;20047;-74
2021/10/08 03:15:20;;;;;;;31.45;19.77;;;7.60;99.90;;;;;;5052370;28;20052;-74
2021/10/08 03:17:47;;;;;;;28.48;17.92;;;7.50;99.90;;;;;;5085938;27;20377;-74
2021/10/08 03:20:14;;;;;;;32.95;18.95;;;7.60;99.90;;;;;;5071730;28;20031;-74
2021/10/08 03:22:41;;;;;;;29.90;17.55;;;7.50;99.90;;;;;;5073401;27;20496;-74
2021/10/08 03:25:09;;;;;;;29.20;17.75;;;7.50;99.90;;;;;;5069147;27;20122;-74
2021/10/08 03:27:37;;;;;;;30.65;17.65;;;7.50;99.90;;;;;;5086779;27;20042;-74
2021/10/08 03:30:06;;;;;;;29.05;18.35;;;7.40;99.90;;;;;;5082331;28;20044;-74
2021/10/08 03:32:34;;;;;;;27.92;17.52;;;7.40;99.90;;;;;;5085580;27;20514;-74
2021/10/08 03:35:01;;;;;;;30.58;18.55;;;7.40;99.90;;;;;;5082903;28;20051;-74
2021/10/08 03:37:40;;;;;;;30.10;18.27;;;7.30;99.90;;;;;;5085143;28;20043;-74
2021/10/08 03:40:09;;;;;;;32.25;19.10;;;7.30;99.90;;;;;;5068829;27;20389;-74
2021/10/08 03:42:36;;;;;;;30.67;19.23;;;7.30;99.90;;;;;;5070132;28;20145;-74
2021/10/08 03:45:12;;;;;;;29.08;18.10;;;7.30;99.90;;;;;;5066492;28;20034;-74
2021/10/08 03:50:28;;;;;;;30.85;17.98;;;7.30;99.90;;;;;;5064534;28;20065;-74
2021/10/08 03:52:54;;;;;;;32.85;19.10;;;7.20;99.90;;;;;;5084547;28;20044;-74
2021/10/08 03:55:21;;;;;;;29.63;18.83;;;7.20;99.90;;;;;;5067931;28;20051;-74
2021/10/08 03:57:47;;;;;;;31.40;17.98;;;7.10;99.90;;;;;;5049994;28;20425;-74
2021/10/08 04:00:14;;;;;;;35.50;20.95;;;7.10;99.90;;;;;;5068232;28;20392;-74
2021/10/08 04:02:50;;;;;;;32.85;18.75;;;7.10;99.90;;;;;;5070373;28;20034;-74
2021/10/08 04:05:17;;;;;;;31.52;18.27;;;7.00;99.90;;;;;;5050182;28;20493;-74
2021/10/08 04:07:44;;;;;;;31.10;17.98;;;7.00;99.90;;;;;;5068729;28;20040;-74
2021/10/08 04:10:11;;;;;;;32.17;19.70;;;7.00;99.90;;;;;;5084820;28;20040;-74
2021/10/08 04:12:39;;;;;;;32.10;19.35;;;7.00;99.90;;;;;;5101851;28;20039;-74
2021/10/08 04:15:06;;;;;;;36.05;20.35;;;6.90;99.90;;;;;;5084905;28;20039;-74
2021/10/08 04:17:35;;;;;;;32.67;19.30;;;6.90;99.90;;;;;;5082684;28;20047;-75
2021/10/08 04:20:03;;;;;;;32.95;18.90;;;6.90;99.90;;;;;;5065708;28;20057;-74
2021/10/08 04:22:32;;;;;;;27.95;17.92;;;6.90;99.90;;;;;;5086378;28;20506;-74
2021/10/08 04:24:58;;;;;;;29.98;18.83;;;6.80;99.90;;;;;;5066903;28;20042;-74
2021/10/08 04:27:25;;;;;;;30.50;18.77;;;6.80;99.90;;;;;;5100916;27;20036;-74
2021/10/08 04:29:52;;;;;;;31.02;17.83;;;6.80;99.90;;;;;;5063576;28;20056;-74
2021/10/08 04:32:19;;;;;;;30.17;16.85;;;6.80;99.90;;;;;;5082764;28;20032;-74
2021/10/08 04:34:46;;;;;;;28.50;17.13;;;6.80;99.90;;;;;;5083179;28;20039;-74
2021/10/08 04:37:12;;;;;;;26.52;16.02;;;6.70;99.90;;;;;;5068344;28;20040;-73
2021/10/08 04:39:41;;;;;;;36.47;20.92;;;6.70;99.90;;;;;;5064415;28;20024;-73
2021/10/08 04:42:08;;;;;;;36.72;23.15;;;6.70;99.90;;;;;;5068187;28;20027;-73
2021/10/08 04:44:36;;;;;;;42.58;25.70;;;6.70;99.90;;;;;;5081754;28;20036;-74
2021/10/08 04:47:04;;;;;;;39.83;23.77;;;6.70;99.90;;;;;;5070804;27;20036;-73
2021/10/08 04:49:31;;;;;;;35.90;22.63;;;6.70;99.90;;;;;;5050638;27;20070;-74
2021/10/08 04:51:58;;;;;;;42.97;22.90;;;6.70;99.90;;;;;;5068362;27;20062;-74
2021/10/08 04:54:25;;;;;;;40.95;23.20;;;6.70;99.90;;;;;;5080677;27;20073;-74
2021/10/08 04:56:51;;;;;;;38.42;22.25;;;6.70;99.90;;;;;;5069038;27;20408;-73
2021/10/08 04:59:19;;;;;;;38.65;22.20;;;6.70;99.90;;;;;;5067657;27;20036;-73
2021/10/08 05:01:46;;;;;;;34.80;20.55;;;6.70;99.90;;;;;;5091126;27;20521;-73
2021/10/08 05:04:12;;;;;;;33.85;19.75;;;6.70;99.90;;;;;;5088544;27;20040;-73
2021/10/08 05:06:38;;;;;;;29.98;17.80;;;6.60;99.90;;;;;;5087650;28;20031;-74
2021/10/08 05:09:05;;;;;;;32.03;18.67;;;6.60;99.90;;;;;;5086690;27;20040;-73
2021/10/08 05:11:33;;;;;;;33.60;19.30;;;6.60;99.90;;;;;;5072065;27;20510;-73
2021/10/08 05:14:00;;;;;;;37.58;24.88;;;6.50;99.90;;;;;;5086808;27;20027;-74
2021/10/08 05:16:26;;;;;;;39.33;23.60;;;6.50;99.90;;;;;;5069618;28;20048;-73
2021/10/08 05:18:53;;;;;;;35.75;21.60;;;6.50;99.90;;;;;;5067845;27;20032;-73
2021/10/08 05:21:23;;;;;;;33.38;19.88;;;6.50;99.90;;;;;;5072145;27;20047;-74
2021/10/08 05:23:51;;;;;;;32.42;20.17;;;6.50;99.90;;;;;;5071244;27;20039;-73
2021/10/08 05:26:17;;;;;;;32.38;19.63;;;6.50;99.90;;;;;;5087829;27;20048;-74
2021/10/08 05:28:43;;;;;;;30.67;17.67;;;6.50;99.90;;;;;;5085711;28;20035;-74
2021/10/08 05:31:10;;;;;;;31.10;18.38;;;6.40;99.90;;;;;;5090223;27;20031;-74
2021/10/08 05:33:37;;;;;;;31.45;19.05;;;6.40;99.90;;;;;;5087015;27;20044;-73
2021/10/08 05:36:04;;;;;;;30.83;18.65;;;6.40;99.90;;;;;;5087270;27;20036;-75
2021/10/08 05:38:30;;;;;;;31.98;18.15;;;6.40;99.90;;;;;;5082969;28;20040;-73
2021/10/08 05:40:57;;;;;;;31.98;18.27;;;6.40;99.90;;;;;;5088700;28;20039;-74
2021/10/08 05:43:25;;;;;;;30.30;18.20;;;6.30;99.90;;;;;;5087868;27;20035;-73
2021/10/08 05:45:56;;;;;;;27.88;16.77;;;6.40;99.90;;;;;;5069275;27;20503;-74
2021/10/08 05:48:23;;;;;;;30.48;17.20;;;6.30;99.90;;;;;;5068646;27;20420;-74
2021/10/08 05:50:49;;;;;;;30.88;17.67;;;6.30;99.90;;;;;;5071428;28;20040;-73
2021/10/08 05:53:17;;;;;;;34.20;18.30;;;6.30;99.90;;;;;;5069545;28;20038;-74
2021/10/08 05:55:44;;;;;;;31.05;17.70;;;6.30;99.90;;;;;;5070644;28;20554;-74
2021/10/08 05:58:11;;;;;;;29.15;17.30;;;6.30;99.90;;;;;;5068926;27;20035;-74
2021/10/08 06:00:38;;;;;;;32.58;17.77;;;6.30;99.90;;;;;;5086596;28;20047;-74
2021/10/08 06:03:05;;;;;;;34.15;19.30;;;6.30;99.90;;;;;;5056957;27;20043;-73
2021/10/08 06:05:36;;;;;;;31.52;17.98;;;6.30;99.90;;;;;;5085998;27;20508;-74
2021/10/08 06:08:07;;;;;;;34.23;18.80;;;6.30;99.90;;;;;;5085628;28;20050;-73
2021/10/08 06:10:38;;;;;;;36.83;18.40;;;6.30;99.90;;;;;;5070792;28;20407;-74
2021/10/08 06:13:05;;;;;;;34.53;18.27;;;6.40;99.90;;;;;;5109299;27;20036;-73
2021/10/08 06:15:32;;;;;;;28.38;16.38;;;6.40;99.90;;;;;;5052340;27;20059;-74
2021/10/08 06:17:58;;;;;;;27.70;15.68;;;6.40;99.90;;;;;;5086683;27;20032;-73
2021/10/08 06:20:26;;;;;;;23.90;14.48;;;6.50;99.90;;;;;;5083692;27;20044;-73
2021/10/08 06:22:55;;;;;;;26.08;15.70;;;6.50;99.90;;;;;;5072785;27;20043;-73
2021/10/08 06:25:23;;;;;;;28.40;14.55;;;6.50;99.90;;;;;;5072436;27;20514;-74
2021/10/08 06:27:52;;;;;;;23.63;14.43;;;6.60;99.90;;;;;;5085167;27;20036;-73
2021/10/08 06:30:21;;;;;;;36.50;16.23;;;6.60;99.90;;;;;;5084757;27;20061;-75
2021/10/08 06:32:49;;;;;;;27.13;14.05;;;6.70;99.90;;;;;;5085691;27;20039;-75
2021/10/08 06:35:16;;;;;;;29.17;16.33;;;6.80;99.90;;;;;;5103240;27;20039;-74
2021/10/08 06:37:44;;;;;;;27.67;15.15;;;6.90;99.90;;;;;;5093492;27;20504;-73
2021/10/08 06:40:11;;;;;;;24.90;14.05;;;7.00;99.90;;;;;;5089289;27;20036;-74
2021/10/08 06:42:39;;;;;;;28.60;14.68;;;7.10;99.90;;;;;;5106803;27;20037;-74
2021/10/08 06:45:26;;;;;;;28.67;13.88;;;7.10;99.90;;;;;;5069475;27;20061;-74
2021/10/08 06:47:54;;;;;;;24.02;15.23;;;7.20;99.90;;;;;;5086334;27;20046;-74
2021/10/08 06:50:21;;;;;;;24.65;13.38;;;7.30;99.90;;;;;;5105430;27;20046;-74
2021/10/08 06:52:48;;;;;;;22.85;12.95;;;7.40;99.90;;;;;;5090744;27;20045;-74
2021/10/08 06:55:15;;;;;;;35.20;14.00;;;7.50;99.90;;;;;;5087072;27;20047;-74
2021/10/08 06:57:42;;;;;;;27.95;14.48;;;7.50;99.90;;;;;;5104299;27;20056;-74
2021/10/08 07:00:09;;;;;;;31.75;15.15;;;7.60;99.90;;;;;;5110452;27;20039;-74
2021/10/08 07:02:53;;;;;;;30.45;14.48;;;7.60;99.90;;;;;;5054898;27;20051;-74
2021/10/08 07:05:24;;;;;;;33.88;14.65;;;7.70;99.90;;;;;;5102762;27;20040;-74
2021/10/08 07:07:55;;;;;;;26.85;14.95;;;7.80;99.90;;;;;;5103499;27;20042;-74
2021/10/08 07:10:25;;;;;;;28.58;14.10;;;7.90;99.90;;;;;;5105475;27;20447;-74
2021/10/08 07:12:51;;;;;;;36.55;15.90;;;8.00;99.90;;;;;;5103526;27;20039;-74
2021/10/08 07:15:18;;;;;;;49.67;15.55;;;8.10;99.90;;;;;;5104721;27;20054;-74
2021/10/08 07:17:50;;;;;;;38.55;16.17;;;8.10;99.90;;;;;;5102969;27;20050;-74
2021/10/08 07:20:23;;;;;;;45.50;17.98;;;8.10;99.90;;;;;;5109112;27;20043;-74
2021/10/08 07:22:50;;;;;;;27.20;15.32;;;8.20;99.90;;;;;;5115861;27;20031;-74
2021/10/08 07:25:17;;;;;;;27.83;16.70;;;8.30;99.90;;;;;;5113516;27;20027;-74
2021/10/08 07:27:46;;;;;;;52.45;18.30;;;8.30;99.90;;;;;;5103290;27;20036;-74
2021/10/08 07:30:14;;;;;;;35.03;17.40;;;8.40;99.90;;;;;;5108362;27;20039;-76
2021/10/08 07:32:44;;;;;;;38.10;16.48;;;8.50;99.90;;;;;;5080125;28;20035;-74
2021/10/08 07:35:11;;;;;;;27.55;15.93;;;8.50;99.90;;;;;;5100680;27;20036;-75
2021/10/08 07:37:38;;;;;;;26.23;16.60;;;8.60;99.90;;;;;;5102322;27;20035;-75
2021/10/08 07:40:06;;;;;;;44.55;17.50;;;8.70;99.90;;;;;;5084237;27;20043;-75
2021/10/08 07:42:34;;;;;;;28.15;17.17;;;8.80;99.90;;;;;;5086944;27;20404;-74
2021/10/08 07:45:04;;;;;;;29.27;17.35;;;8.90;99.90;;;;;;5110044;27;20392;-75
2021/10/08 07:47:30;;;;;;;31.55;18.40;;;8.90;99.90;;;;;;5114944;27;20031;-75
2021/10/08 07:49:58;;;;;;;28.20;18.42;;;9.00;99.90;;;;;;5085034;28;20023;-75
2021/10/08 07:52:24;;;;;;;27.23;18.30;;;9.10;99.90;;;;;;5105452;27;20448;-75
2021/10/08 07:54:51;;;;;;;65.50;20.52;;;9.20;99.90;;;;;;5114625;27;20043;-75
2021/10/08 07:57:17;;;;;;;27.85;18.15;;;9.20;99.90;;;;;;5107482;27;20524;-75
2021/10/08 07:59:43;;;;;;;34.03;19.08;;;9.20;99.90;;;;;;5106728;27;20035;-75
2021/10/08 08:02:10;;;;;;;32.60;18.58;;;9.30;99.90;;;;;;5106316;27;20074;-75
2021/10/08 08:04:37;;;;;;;29.45;18.60;;;9.40;99.90;;;;;;5107670;27;20043;-75
2021/10/08 08:07:05;;;;;;;32.83;20.08;;;9.50;99.90;;;;;;5105852;27;20050;-75
2021/10/08 08:09:32;;;;;;;28.75;19.25;;;9.60;99.90;;;;;;5103428;28;20214;-75
2021/10/08 08:11:58;;;;;;;23.58;17.05;;;9.70;99.90;;;;;;5090009;28;20035;-75
2021/10/08 08:14:25;;;;;;;30.45;18.55;;;9.80;99.90;;;;;;5086571;28;20032;-75
2021/10/08 08:16:51;;;;;;;26.92;19.15;;;9.80;99.90;;;;;;5104516;28;20303;-75
2021/10/08 08:19:17;;;;;;;29.48;19.33;;;9.90;99.90;;;;;;5105297;27;20047;-75
2021/10/08 08:21:44;;;;;;;25.63;17.92;;;10.10;99.90;;;;;;5107276;27;20044;-75
2021/10/08 08:24:11;;;;;;;27.88;19.10;;;10.20;99.90;;;;;;5091167;27;20047;-75
2021/10/08 08:26:37;;;;;;;24.30;16.45;;;10.30;99.90;;;;;;5091472;27;20515;-75
2021/10/08 08:29:05;;;;;;;33.33;20.60;;;10.50;99.90;;;;;;5108973;27;20071;-75
2021/10/08 08:31:32;;;;;;;31.63;19.27;;;10.60;99.90;;;;;;5107485;27;20047;-75
2021/10/08 08:33:59;;;;;;;24.83;17.90;;;10.70;99.90;;;;;;5090546;27;20044;-75
2021/10/08 08:36:25;;;;;;;24.80;18.00;;;10.80;99.90;;;;;;5111589;27;20463;-75
2021/10/08 08:38:52;;;;;;;28.42;19.77;;;10.90;99.90;;;;;;5106921;27;20047;-75
2021/10/08 08:41:18;;;;;;;30.13;20.38;;;11.10;99.90;;;;;;5111835;27;20031;-75
2021/10/08 08:43:45;;;;;;;28.92;20.77;;;11.20;99.90;;;;;;5091218;28;21190;-75
2021/10/08 08:46:12;;;;;;;24.35;17.75;;;11.30;99.90;;;;;;5107602;27;20047;-75
2021/10/08 08:48:41;;;;;;;26.75;18.35;;;11.40;99.90;;;;;;5110686;27;20039;-75
2021/10/08 08:51:07;;;;;;;29.48;20.80;;;11.50;99.90;;;;;;5108617;27;20062;-75
2021/10/08 08:53:34;;;;;;;25.27;18.15;;;11.60;99.90;;;;;;5107091;27;20042;-75
2021/10/08 08:56:01;;;;;;;28.42;20.30;;;11.70;99.90;;;;;;5107416;27;20051;-75
2021/10/08 08:58:28;;;;;;;30.38;20.35;;;11.80;99.90;;;;;;5055433;27;20056;-75
2021/10/08 09:01:00;;;;;;;31.27;21.35;;;11.90;99.90;;;;;;5107517;27;20139;-75
2021/10/08 09:03:27;;;;;;;30.60;22.05;;;12.00;99.90;;;;;;5105483;27;20039;-75
2021/10/08 09:05:54;;;;;;;30.48;20.08;;;12.00;99.90;;;;;;5105511;27;20031;-75
2021/10/08 09:08:31;;;;;;;29.23;20.60;;;12.10;99.90;;;;;;5107745;27;20051;-75
2021/10/08 09:11:00;;;;;;;31.83;21.60;;;12.20;99.90;;;;;;5111665;27;20042;-75
2021/10/08 09:13:27;;;;;;;27.73;18.25;;;12.40;99.90;;;;;;5112116;27;20047;-75
2021/10/08 09:15:56;;;;;;;30.85;21.90;;;12.40;99.90;;;;;;5121205;27;20387;-75
2021/10/08 09:18:28;;;;;;;28.65;20.38;;;12.50;99.90;;;;;;5117716;27;20495;-75
2021/10/08 09:21:11;;;;;;;29.10;19.88;;;12.60;99.90;;;;;;5098780;27;20043;-75
2021/10/08 09:23:48;;;;;;;29.45;21.35;;;12.70;99.90;;;;;;5077091;27;20134;-75
2021/10/08 09:26:25;;;;;;;26.38;19.73;;;12.80;99.90;;;;;;5109264;27;20058;-75
2021/10/08 09:29:08;;;;;;;27.30;19.88;;;13.00;99.90;;;;;;5113078;27;20035;-75
2021/10/08 09:31:43;;;;;;;29.17;20.45;;;13.20;99.90;;;;;;5089050;27;20046;-75
2021/10/08 09:34:23;;;;;;;30.17;20.42;;;13.30;99.90;;;;;;5091171;27;20043;-75
2021/10/08 09:37:03;;;;;;;28.90;20.00;;;13.50;99.90;;;;;;5103986;27;20035;-75
2021/10/08 09:39:32;;;;;;;27.55;17.67;;;13.60;99.90;;;;;;5108886;27;20043;-75
2021/10/08 09:42:13;;;;;;;32.40;21.95;;;13.80;99.90;;;;;;5107449;27;20043;-74
2021/10/08 09:44:47;;;;;;;29.23;19.80;;;14.00;99.90;;;;;;5104290;27;20048;-75
2021/10/08 09:47:15;;;;;;;25.98;18.25;;;14.20;99.90;;;;;;5106354;27;20023;-75
2021/10/08 09:49:43;;;;;;;26.10;19.65;;;14.20;99.90;;;;;;5105849;27;20039;-75
2021/10/08 09:52:26;;;;;;;29.73;20.50;;;14.30;99.90;;;;;;5107788;27;20051;-75
2021/10/08 09:55:03;;;;;;;26.15;18.48;;;14.40;99.90;;;;;;5072874;27;20058;-75
2021/10/08 09:57:53;;;;;;;29.02;20.10;;;14.50;99.90;;;;;;5091017;27;20069;-75
2021/10/08 10:00:38;;;;;;;25.45;17.90;;;14.70;99.90;;;;;;5110066;27;20046;-75
2021/10/08 10:03:07;;;;;;;22.88;15.95;;;15.00;99.90;;;;;;5093790;28;20040;-75
2021/10/08 10:05:34;;;;;;;26.45;19.95;;;15.20;99.90;;;;;;5106720;27;20431;-75
2021/10/08 10:08:01;;;;;;;27.98;18.33;;;15.50;99.90;;;;;;5113873;27;20023;-75
2021/10/08 10:10:28;;;;;;;28.80;20.85;;;15.90;99.90;;;;;;5119378;27;20383;-75
2021/10/08 10:12:56;;;;;;;23.42;17.05;;;16.20;99.90;;;;;;5095322;27;20036;-75
2021/10/08 10:15:23;;;;;;;22.52;17.10;;;16.60;99.90;;;;;;5115307;27;20047;-75
2021/10/08 10:17:50;;;;;;;24.00;16.85;;;16.90;99.90;;;;;;5116925;27;20076;-75
2021/10/08 10:20:16;;;;;;;22.90;17.70;;;17.30;99.90;;;;;;5112145;27;20059;-75
2021/10/08 10:22:43;;;;;;;23.95;17.45;;;17.60;99.90;;;;;;5110776;27;20373;-75
2021/10/08 10:25:11;;;;;;;23.05;16.65;;;17.80;99.90;;;;;;5108657;27;20447;-76
2021/10/08 10:27:39;;;;;;;19.75;15.27;;;18.00;99.90;;;;;;5112636;27;20749;-75
2021/10/08 10:30:07;;;;;;;19.05;14.60;;;18.20;99.90;;;;;;5105419;27;20058;-76
2021/10/08 10:32:36;;;;;;;21.02;16.25;;;18.50;99.90;;;;;;5089960;28;20042;-75
2021/10/08 10:35:04;;;;;;;20.50;14.88;;;18.80;99.90;;;;;;5088535;27;20047;-75
2021/10/08 10:37:43;;;;;;;18.20;15.43;;;19.10;99.90;;;;;;5109893;27;20039;-75
2021/10/08 10:40:18;;;;;;;17.45;14.95;;;19.50;99.90;;;;;;5091752;27;20043;-76
2021/10/08 10:42:45;;;;;;;17.42;13.77;;;19.90;99.90;;;;;;5112027;27;20031;-76
2021/10/08 10:45:21;;;;;;;18.40;15.07;;;20.10;99.90;;;;;;5113706;27;20568;-75
2021/10/08 10:48:12;;;;;;;17.52;14.77;;;20.30;99.90;;;;;;5104756;27;20035;-76
2021/10/08 10:50:48;;;;;;;16.77;14.48;;;20.50;99.90;;;;;;5079715;27;20074;-76
2021/10/08 10:53:14;;;;;;;16.13;13.68;;;20.70;99.90;;;;;;5105915;27;20057;-76
2021/10/08 10:55:41;;;;;;;16.40;13.52;;;20.90;99.90;;;;;;5115959;27;20043;-76
2021/10/08 10:58:15;;;;;;;17.92;14.57;;;21.00;99.90;;;;;;5104567;27;20042;-76
2021/10/08 11:00:47;;;;;;;16.08;13.52;;;21.20;99.90;;;;;;5105266;27;20045;-76
2021/10/08 11:03:16;;;;;;;14.82;13.00;;;21.50;99.90;;;;;;5114007;27;20039;-76
2021/10/08 11:06:04;;;;;;;15.80;13.80;;;21.70;99.90;;;;;;5102488;27;20039;-76
2021/10/08 11:08:31;;;;;;;15.30;13.35;;;21.90;99.90;;;;;;5108648;27;20043;-76
2021/10/08 11:11:00;;;;;;;15.02;12.98;;;22.00;99.90;;;;;;5090668;27;20043;-76
2021/10/08 11:13:30;;;;;;;13.07;11.20;;;22.20;99.90;;;;;;5105654;27;20058;-76
2021/10/08 11:16:05;;;;;;;13.20;11.23;;;22.40;99.90;;;;;;5119334;27;20030;-76
2021/10/08 11:18:50;;;;;;;13.75;11.35;;;22.50;98.90;;;;;;5117574;27;20053;-76
2021/10/08 11:21:34;;;;;;;12.55;9.60;;;22.40;97.40;;;;;;5103197;27;20048;-76
2021/10/08 11:24:20;;;;;;;10.27;8.70;;;22.30;96.80;;;;;;5105745;27;20031;-76
2021/10/08 11:26:54;;;;;;;10.02;8.50;;;22.40;95.90;;;;;;5112518;27;20068;-76
2021/10/08 11:29:21;;;;;;;8.77;7.55;;;22.50;95.00;;;;;;5113345;27;20506;-76
2021/10/08 11:31:58;;;;;;;7.45;6.35;;;22.70;95.30;;;;;;5107851;27;20039;-76
2021/10/08 11:34:25;;;;;;;6.40;5.18;;;22.90;93.80;;;;;;5105054;27;20372;-76
2021/10/08 11:36:57;;;;;;;4.65;4.03;;;22.70;93.40;;;;;;5119215;27;20032;-76
2021/10/08 11:39:24;;;;;;;;;;;22.20;93.30;;;;;;5105899;27;20039;-76
2021/10/08 11:41:59;;;;;;;6.30;4.78;;;21.70;93.00;;;;;;5102674;27;19911;-76
2021/10/08 11:45:15;;;;;;;4.45;3.97;;;21.80;93.60;;;;;;5101580;27;20047;-76
2021/10/08 11:47:18;;;;;;;4.75;3.88;;;22.10;93.30;;;;;;5094622;27;20109;-76
2021/10/08 11:52:38;;;;;;;2.85;2.53;;;23.30;91.70;;;;;;5118196;27;20038;-76
2021/10/08 11:55:30;;;;;;;3.25;2.15;;;23.80;90.70;;;;;;5086686;27;20055;-76
2021/10/08 11:58:00;;;;;;;3.65;2.30;;;24.40;89.80;;;;;;5103209;27;20089;-76
2021/10/08 12:00:35;;;;;;;2.58;2.08;;;24.70;82.80;;;;;;5116545;27;20812;-76
2021/10/08 12:03:21;;;;;;;2.05;1.00;;;24.60;78.40;;;;;;5101817;27;20043;-76
2021/10/08 12:05:52;;;;;;;1.42;1.10;;;24.70;79.10;;;;;;5111575;27;20418;-76
2021/10/08 12:08:21;;;;;;;1.65;1.10;;;25.00;78.40;;;;;;5086355;27;20387;-76
2021/10/08 12:11:02;;;;;;;2.42;1.10;;;25.30;75.90;;;;;;5104610;27;20027;-76
2021/10/08 12:13:41;;;;;;;1.70;1.10;;;25.50;75.70;;;;;;5119058;27;20027;-76
2021/10/08 12:16:08;;;;;;;1.67;1.00;;;25.90;74.30;;;;;;5117826;27;20039;-76
2021/10/08 12:18:34;;;;;;;2.40;1.20;;;26.10;72.90;;;;;;5117673;27;20043;-76
2021/10/08 12:21:38;;;;;;;1.92;0.77;;;26.40;69.70;;;;;;5085098;28;20039;-76
2021/10/08 12:24:05;;;;;;;1.67;1.10;;;26.50;68.40;;;;;;5090654;27;20046;-75
2021/10/08 12:26:33;;;;;;;2.53;0.93;;;26.50;67.60;;;;;;5119685;27;20036;-77
2021/10/08 12:29:06;;;;;;;1.73;1.10;;;26.60;67.30;;;;;;5074450;27;20413;-76
2021/10/08 12:31:54;;;;;;;2.45;0.80;;;26.80;65.70;;;;;;5105485;27;20023;-77
2021/10/08 12:34:40;;;;;;;1.15;0.60;;;27.10;65.30;;;;;;5087870;27;20050;-76
2021/10/08 12:37:12;;;;;;;2.17;1.05;;;27.30;63.60;;;;;;5108364;27;20044;-76
2021/10/08 12:39:56;;;;;;;1.63;0.90;;;27.50;62.60;;;;;;5115112;27;20432;-76
2021/10/08 12:42:25;;;;;;;2.30;1.10;;;27.70;62.30;;;;;;5110931;27;20050;-76
2021/10/08 12:44:56;;;;;;;1.75;0.95;;;27.90;61.30;;;;;;5100457;27;20032;-76
2021/10/08 12:47:30;;;;;;;1.45;0.80;;;28.00;60.60;;;;;;5107473;27;20035;-76
2021/10/08 12:50:00;;;;;;;3.47;2.28;;;28.20;60.90;;;;;;5113569;27;20031;-76
2021/10/08 12:52:34;;;;;;;1.55;0.70;;;28.40;59.30;;;;;;5121742;27;20030;-76